sensor_id;sensor_type;location;lat;lon;timestamp;pressure;altitude;pressure_sealevel;temperature
20730;BMP280;10526;50.850;12.928;2023-03-26T00:00:43;96947.09;;;7.44
20730;BMP280;10526;50.850;12.928;2023-03-26T00:05:06;96946.00;;;7.42
20730;BMP280;10526;50.850;12.928;2023-03-26T00:09:29;96951.66;;;7.40
20730;BMP280;10526;50.850;12.928;2023-03-26T00:13:52;96950.91;;;7.39
20730;BMP280;10526;50.850;12.928;2023-03-26T00:18:18;96948.63;;;7.42
20730;BMP280;10526;50.850;12.928;2023-03-26T00:22:41;96944.84;;;7.43
20730;BMP280;10526;50.850;12.928;2023-03-26T00:27:04;96948.63;;;7.45
20730;BMP280;10526;50.850;12.928;2023-03-26T00:31:26;96953.81;;;7.49
20730;BMP280;10526;50.850;12.928;2023-03-26T00:35:54;96955.69;;;7.52
20730;BMP280;10526;50.850;12.928;2023-03-26T00:40:16;96933.38;;;7.53
20730;BMP280;10526;50.850;12.928;2023-03-26T00:44:38;96935.97;;;7.56
20730;BMP280;10526;50.850;12.928;2023-03-26T00:49:00;96944.22;;;7.62
20730;BMP280;10526;50.850;12.928;2023-03-26T00:53:24;96938.28;;;7.54
20730;BMP280;10526;50.850;12.928;2023-03-26T00:57:47;96944.44;;;7.44
20730;BMP280;10526;50.850;12.928;2023-03-26T01:02:15;96920.41;;;7.28
20730;BMP280;10526;50.850;12.928;2023-03-26T01:06:39;96928.09;;;7.19
20730;BMP280;10526;50.850;12.928;2023-03-26T01:11:16;96934.91;;;7.16
20730;BMP280;10526;50.850;12.928;2023-03-26T01:15:39;96924.34;;;7.12
20730;BMP280;10526;50.850;12.928;2023-03-26T01:20:08;96925.47;;;7.15
20730;BMP280;10526;50.850;12.928;2023-03-26T01:24:34;96941.81;;;7.06
20730;BMP280;10526;50.850;12.928;2023-03-26T01:28:58;96919.91;;;7.02
20730;BMP280;10526;50.850;12.928;2023-03-26T01:33:34;96938.47;;;6.99
20730;BMP280;10526;50.850;12.928;2023-03-26T01:38:14;96934.34;;;6.98
20730;BMP280;10526;50.850;12.928;2023-03-26T01:47:45;96939.03;;;7.17
20730;BMP280;10526;50.850;12.928;2023-03-26T01:52:17;96939.72;;;7.25
20730;BMP280;10526;50.850;12.928;2023-03-26T02:02:10;96944.31;;;7.21
20730;BMP280;10526;50.850;12.928;2023-03-26T02:11:23;96948.84;;;6.79
20730;BMP280;10526;50.850;12.928;2023-03-26T02:16:02;96956.88;;;6.68
20730;BMP280;10526;50.850;12.928;2023-03-26T02:20:24;96944.09;;;6.59
20730;BMP280;10526;50.850;12.928;2023-03-26T02:24:50;96946.03;;;6.52
20730;BMP280;10526;50.850;12.928;2023-03-26T02:29:14;96941.53;;;6.49
20730;BMP280;10526;50.850;12.928;2023-03-26T02:33:42;96940.03;;;6.48
20730;BMP280;10526;50.850;12.928;2023-03-26T02:38:08;96942.69;;;6.48
20730;BMP280;10526;50.850;12.928;2023-03-26T02:42:31;96934.00;;;6.47
20730;BMP280;10526;50.850;12.928;2023-03-26T02:46:53;96933.25;;;6.47
20730;BMP280;10526;50.850;12.928;2023-03-26T02:51:34;96934.41;;;6.46
20730;BMP280;10526;50.850;12.928;2023-03-26T02:55:59;96926.81;;;6.48
20730;BMP280;10526;50.850;12.928;2023-03-26T03:00:29;96923.44;;;6.47
20730;BMP280;10526;50.850;12.928;2023-03-26T03:05:11;96923.78;;;6.49
20730;BMP280;10526;50.850;12.928;2023-03-26T03:09:33;96912.06;;;6.50
20730;BMP280;10526;50.850;12.928;2023-03-26T03:14:14;96910.16;;;6.51
20730;BMP280;10526;50.850;12.928;2023-03-26T03:18:36;96903.72;;;6.52
20730;BMP280;10526;50.850;12.928;2023-03-26T03:22:58;96906.75;;;6.54
20730;BMP280;10526;50.850;12.928;2023-03-26T03:27:21;96898.44;;;6.52
20730;BMP280;10526;50.850;12.928;2023-03-26T03:31:51;96906.00;;;6.53
20730;BMP280;10526;50.850;12.928;2023-03-26T03:36:37;96902.13;;;6.61
20730;BMP280;10526;50.850;12.928;2023-03-26T03:41:15;96912.28;;;6.70
20730;BMP280;10526;50.850;12.928;2023-03-26T03:45:40;96913.72;;;6.78
20730;BMP280;10526;50.850;12.928;2023-03-26T03:50:21;96914.47;;;6.79
20730;BMP280;10526;50.850;12.928;2023-03-26T03:55:01;96906.91;;;6.77
20730;BMP280;10526;50.850;12.928;2023-03-26T03:59:38;96904.34;;;6.70
20730;BMP280;10526;50.850;12.928;2023-03-26T04:04:09;96902.44;;;6.71
20730;BMP280;10526;50.850;12.928;2023-03-26T04:08:41;96905.84;;;6.71
20730;BMP280;10526;50.850;12.928;2023-03-26T04:13:03;96903.91;;;6.75
20730;BMP280;10526;50.850;12.928;2023-03-26T04:17:51;96901.97;;;6.79
20730;BMP280;10526;50.850;12.928;2023-03-26T04:22:15;96897.41;;;6.83
20730;BMP280;10526;50.850;12.928;2023-03-26T04:26:48;96895.50;;;6.87
20730;BMP280;10526;50.850;12.928;2023-03-26T04:31:17;96896.63;;;6.86
20730;BMP280;10526;50.850;12.928;2023-03-26T04:35:46;96893.59;;;6.88
20730;BMP280;10526;50.850;12.928;2023-03-26T04:40:19;96890.94;;;6.88
20730;BMP280;10526;50.850;12.928;2023-03-26T04:45:01;96896.97;;;6.92
20730;BMP280;10526;50.850;12.928;2023-03-26T04:49:24;96889.38;;;6.94
20730;BMP280;10526;50.850;12.928;2023-03-26T04:53:58;96895.41;;;6.95
20730;BMP280;10526;50.850;12.928;2023-03-26T04:58:24;96893.13;;;6.97
20730;BMP280;10526;50.850;12.928;2023-03-26T05:02:54;96898.78;;;6.99
20730;BMP280;10526;50.850;12.928;2023-03-26T05:07:21;96908.19;;;7.03
20730;BMP280;10526;50.850;12.928;2023-03-26T05:11:49;96900.25;;;7.03
20730;BMP280;10526;50.850;12.928;2023-03-26T05:16:12;96900.69;;;6.98
20730;BMP280;10526;50.850;12.928;2023-03-26T05:20:41;96899.56;;;6.99
20730;BMP280;10526;50.850;12.928;2023-03-26T05:25:05;96907.78;;;7.05
20730;BMP280;10526;50.850;12.928;2023-03-26T05:29:27;96913.47;;;7.07
20730;BMP280;10526;50.850;12.928;2023-03-26T05:33:49;96902.06;;;7.10
20730;BMP280;10526;50.850;12.928;2023-03-26T05:38:12;96907.31;;;7.13
20730;BMP280;10526;50.850;12.928;2023-03-26T05:42:34;96903.50;;;7.18
20730;BMP280;10526;50.850;12.928;2023-03-26T05:47:21;96901.88;;;7.28
20730;BMP280;10526;50.850;12.928;2023-03-26T05:51:43;96894.78;;;7.52
20730;BMP280;10526;50.850;12.928;2023-03-26T05:56:40;96886.84;;;8.06
20730;BMP280;10526;50.850;12.928;2023-03-26T06:01:22;96892.72;;;9.27
20730;BMP280;10526;50.850;12.928;2023-03-26T06:06:15;96886.25;;;10.75
20730;BMP280;10526;50.850;12.928;2023-03-26T06:10:46;96886.63;;;11.44
20730;BMP280;10526;50.850;12.928;2023-03-26T06:15:09;96885.63;;;10.71
20730;BMP280;10526;50.850;12.928;2023-03-26T06:19:43;96880.47;;;10.02
20730;BMP280;10526;50.850;12.928;2023-03-26T06:24:15;96873.06;;;9.61
20730;BMP280;10526;50.850;12.928;2023-03-26T06:28:52;96863.69;;;9.36
20730;BMP280;10526;50.850;12.928;2023-03-26T06:33:40;96848.81;;;9.02
20730;BMP280;10526;50.850;12.928;2023-03-26T06:38:04;96858.06;;;8.74
20730;BMP280;10526;50.850;12.928;2023-03-26T06:42:29;96855.66;;;8.60
20730;BMP280;10526;50.850;12.928;2023-03-26T06:47:40;96860.03;;;8.70
20730;BMP280;10526;50.850;12.928;2023-03-26T06:52:21;96860.25;;;8.80
20730;BMP280;10526;50.850;12.928;2023-03-26T06:56:57;96858.28;;;8.84
20730;BMP280;10526;50.850;12.928;2023-03-26T07:01:23;96861.28;;;8.86
20730;BMP280;10526;50.850;12.928;2023-03-26T07:06:04;96863.47;;;9.11
20730;BMP280;10526;50.850;12.928;2023-03-26T07:10:58;96861.50;;;9.67
20730;BMP280;10526;50.850;12.928;2023-03-26T07:15:47;96863.75;;;10.18
20730;BMP280;10526;50.850;12.928;2023-03-26T07:20:36;96854.53;;;10.68
20730;BMP280;10526;50.850;12.928;2023-03-26T07:24:59;96859.31;;;11.02
20730;BMP280;10526;50.850;12.928;2023-03-26T07:30:02;96853.09;;;10.92
20730;BMP280;10526;50.850;12.928;2023-03-26T07:35:09;96848.16;;;10.78
20730;BMP280;10526;50.850;12.928;2023-03-26T07:45:39;96840.97;;;10.62
20730;BMP280;10526;50.850;12.928;2023-03-26T07:50:21;96836.19;;;10.41
20730;BMP280;10526;50.850;12.928;2023-03-26T07:54:53;96834.91;;;10.16
20730;BMP280;10526;50.850;12.928;2023-03-26T08:00:21;96828.00;;;10.19
20730;BMP280;10526;50.850;12.928;2023-03-26T08:05:08;96819.56;;;10.94
20730;BMP280;10526;50.850;12.928;2023-03-26T08:10:02;96815.06;;;12.15
20730;BMP280;10526;50.850;12.928;2023-03-26T08:15:02;96823.38;;;12.61
20730;BMP280;10526;50.850;12.928;2023-03-26T08:19:47;96810.00;;;12.30
20730;BMP280;10526;50.850;12.928;2023-03-26T08:24:26;96800.66;;;12.34
20730;BMP280;10526;50.850;12.928;2023-03-26T08:29:09;96806.13;;;12.31
20730;BMP280;10526;50.850;12.928;2023-03-26T08:33:31;96808.38;;;12.85
20730;BMP280;10526;50.850;12.928;2023-03-26T08:37:57;96792.19;;;16.98
20730;BMP280;10526;50.850;12.928;2023-03-26T08:57:47;96795.19;;;20.01
20730;BMP280;10526;50.850;12.928;2023-03-26T09:02:54;96783.81;;;19.63
20730;BMP280;10526;50.850;12.928;2023-03-26T09:17:18;96792.66;;;24.68
20730;BMP280;10526;50.850;12.928;2023-03-26T09:31:50;96776.38;;;18.82
20730;BMP280;10526;50.850;12.928;2023-03-26T09:41:37;96763.31;;;18.69
20730;BMP280;10526;50.850;12.928;2023-03-26T09:51:01;96752.16;;;23.66
20730;BMP280;10526;50.850;12.928;2023-03-26T10:20:25;96691.41;;;21.12
20730;BMP280;10526;50.850;12.928;2023-03-26T10:30:43;96673.56;;;19.62
20730;BMP280;10526;50.850;12.928;2023-03-26T10:35:25;96670.03;;;19.00
20730;BMP280;10526;50.850;12.928;2023-03-26T10:50:10;96671.72;;;18.38
20730;BMP280;10526;50.850;12.928;2023-03-26T10:54:56;96651.91;;;18.46
20730;BMP280;10526;50.850;12.928;2023-03-26T10:59:23;96657.00;;;21.07
20730;BMP280;10526;50.850;12.928;2023-03-26T11:03:53;96666.41;;;23.20
20730;BMP280;10526;50.850;12.928;2023-03-26T11:32:14;96637.16;;;18.96
20730;BMP280;10526;50.850;12.928;2023-03-26T11:36:48;96636.69;;;17.43
20730;BMP280;10526;50.850;12.928;2023-03-26T11:41:19;96636.81;;;17.54
20730;BMP280;10526;50.850;12.928;2023-03-26T11:46:12;96622.59;;;16.61
20730;BMP280;10526;50.850;12.928;2023-03-26T11:50:43;96624.78;;;15.93
20730;BMP280;10526;50.850;12.928;2023-03-26T11:55:05;96624.63;;;15.13
20730;BMP280;10526;50.850;12.928;2023-03-26T11:59:41;96629.50;;;15.00
20730;BMP280;10526;50.850;12.928;2023-03-26T12:04:40;96628.13;;;14.81
20730;BMP280;10526;50.850;12.928;2023-03-26T12:09:02;96618.03;;;14.76
20730;BMP280;10526;50.850;12.928;2023-03-26T12:13:49;96615.34;;;14.52
20730;BMP280;10526;50.850;12.928;2023-03-26T12:18:26;96617.78;;;14.64
20730;BMP280;10526;50.850;12.928;2023-03-26T12:22:48;96612.34;;;14.26
20730;BMP280;10526;50.850;12.928;2023-03-26T12:27:25;96613.22;;;13.90
20730;BMP280;10526;50.850;12.928;2023-03-26T12:31:56;96605.94;;;13.90
20730;BMP280;10526;50.850;12.928;2023-03-26T12:36:25;96606.06;;;13.87
20730;BMP280;10526;50.850;12.928;2023-03-26T12:41:09;96605.06;;;13.75
20730;BMP280;10526;50.850;12.928;2023-03-26T12:45:56;96599.31;;;13.22
20730;BMP280;10526;50.850;12.928;2023-03-26T13:05:28;96619.59;;;11.58
20730;BMP280;10526;50.850;12.928;2023-03-26T13:10:43;96627.06;;;11.63
20730;BMP280;10526;50.850;12.928;2023-03-26T13:15:29;96633.84;;;11.42
20730;BMP280;10526;50.850;12.928;2023-03-26T13:20:59;96629.47;;;11.01
20730;BMP280;10526;50.850;12.928;2023-03-26T13:31:43;96610.84;;;10.12
20730;BMP280;10526;50.850;12.928;2023-03-26T13:45:32;96603.81;;;10.82
20730;BMP280;10526;50.850;12.928;2023-03-26T13:54:51;96618.94;;;10.59
20730;BMP280;10526;50.850;12.928;2023-03-26T13:59:37;96614.13;;;9.74
20730;BMP280;10526;50.850;12.928;2023-03-26T14:08:50;96593.00;;;8.60
20730;BMP280;10526;50.850;12.928;2023-03-26T14:23:24;96591.00;;;8.97
20730;BMP280;10526;50.850;12.928;2023-03-26T14:28:13;96578.81;;;8.99
20730;BMP280;10526;50.850;12.928;2023-03-26T15:01:24;96535.94;;;9.88
20730;BMP280;10526;50.850;12.928;2023-03-26T15:06:24;96535.81;;;10.04
20730;BMP280;10526;50.850;12.928;2023-03-26T15:11:24;96526.25;;;10.07
20730;BMP280;10526;50.850;12.928;2023-03-26T15:36:49;96517.22;;;10.04
20730;BMP280;10526;50.850;12.928;2023-03-26T15:51:24;96517.97;;;9.50
20730;BMP280;10526;50.850;12.928;2023-03-26T16:00:35;96511.88;;;9.37
20730;BMP280;10526;50.850;12.928;2023-03-26T16:10:15;96501.19;;;9.24
20730;BMP280;10526;50.850;12.928;2023-03-26T16:14:47;96499.13;;;9.16
20730;BMP280;10526;50.850;12.928;2023-03-26T16:19:49;96495.03;;;9.15
20730;BMP280;10526;50.850;12.928;2023-03-26T16:24:23;96500.47;;;9.08
20730;BMP280;10526;50.850;12.928;2023-03-26T16:33:35;96489.06;;;8.94
20730;BMP280;10526;50.850;12.928;2023-03-26T16:38:11;96489.25;;;8.87
20730;BMP280;10526;50.850;12.928;2023-03-26T16:47:27;96490.94;;;8.65
20730;BMP280;10526;50.850;12.928;2023-03-26T16:52:26;96486.19;;;8.56
20730;BMP280;10526;50.850;12.928;2023-03-26T16:57:28;96492.06;;;8.47
20730;BMP280;10526;50.850;12.928;2023-03-26T17:12:02;96490.84;;;8.36
20730;BMP280;10526;50.850;12.928;2023-03-26T17:26:40;96500.00;;;8.15
20730;BMP280;10526;50.850;12.928;2023-03-26T17:31:18;96497.91;;;8.06
20730;BMP280;10526;50.850;12.928;2023-03-26T17:35:47;96512.41;;;8.02
20730;BMP280;10526;50.850;12.928;2023-03-26T17:45:13;96516.50;;;7.86
20730;BMP280;10526;50.850;12.928;2023-03-26T17:49:38;96507.56;;;7.80
20730;BMP280;10526;50.850;12.928;2023-03-26T17:54:06;96503.69;;;7.65
20730;BMP280;10526;50.850;12.928;2023-03-26T17:58:41;96499.19;;;7.62
20730;BMP280;10526;50.850;12.928;2023-03-26T18:03:31;96497.84;;;7.54
20730;BMP280;10526;50.850;12.928;2023-03-26T18:13:49;96492.53;;;7.34
20730;BMP280;10526;50.850;12.928;2023-03-26T18:22:50;96504.53;;;7.38
20730;BMP280;10526;50.850;12.928;2023-03-26T18:27:19;96501.97;;;7.35
20730;BMP280;10526;50.850;12.928;2023-03-26T18:31:42;96503.19;;;7.30
20730;BMP280;10526;50.850;12.928;2023-03-26T18:36:09;96496.31;;;7.33
20730;BMP280;10526;50.850;12.928;2023-03-26T18:40:38;96494.16;;;7.28
20730;BMP280;10526;50.850;12.928;2023-03-26T18:45:07;96488.19;;;7.24
20730;BMP280;10526;50.850;12.928;2023-03-26T18:49:30;96492.78;;;7.20
20730;BMP280;10526;50.850;12.928;2023-03-26T18:53:57;96481.63;;;7.08
20730;BMP280;10526;50.850;12.928;2023-03-26T18:58:32;96477.09;;;7.09
20730;BMP280;10526;50.850;12.928;2023-03-26T19:03:06;96484.28;;;7.08
20730;BMP280;10526;50.850;12.928;2023-03-26T19:07:29;96480.09;;;7.11
20730;BMP280;10526;50.850;12.928;2023-03-26T19:11:56;96472.72;;;6.99
20730;BMP280;10526;50.850;12.928;2023-03-26T19:16:23;96463.34;;;6.94
20730;BMP280;10526;50.850;12.928;2023-03-26T19:20:53;96455.53;;;6.87
20730;BMP280;10526;50.850;12.928;2023-03-26T19:25:26;96452.03;;;6.70
20730;BMP280;10526;50.850;12.928;2023-03-26T19:29:49;96456.41;;;6.57
20730;BMP280;10526;50.850;12.928;2023-03-26T19:43:13;96455.47;;;6.67
20730;BMP280;10526;50.850;12.928;2023-03-26T19:47:40;96451.63;;;6.72
20730;BMP280;10526;50.850;12.928;2023-03-26T19:56:46;96432.13;;;6.85
20730;BMP280;10526;50.850;12.928;2023-03-26T20:01:22;96432.81;;;6.90
20730;BMP280;10526;50.850;12.928;2023-03-26T20:05:45;96415.44;;;6.88
20730;BMP280;10526;50.850;12.928;2023-03-26T20:10:08;96421.19;;;6.83
20730;BMP280;10526;50.850;12.928;2023-03-26T20:14:31;96416.38;;;6.78
20730;BMP280;10526;50.850;12.928;2023-03-26T20:18:53;96405.09;;;6.74
20730;BMP280;10526;50.850;12.928;2023-03-26T20:23:18;96412.63;;;6.76
20730;BMP280;10526;50.850;12.928;2023-03-26T20:27:40;96410.69;;;6.80
20730;BMP280;10526;50.850;12.928;2023-03-26T20:32:02;96405.75;;;6.82
20730;BMP280;10526;50.850;12.928;2023-03-26T20:36:27;96409.41;;;6.88
20730;BMP280;10526;50.850;12.928;2023-03-26T20:40:55;96407.50;;;6.88
20730;BMP280;10526;50.850;12.928;2023-03-26T20:45:22;96407.59;;;6.85
20730;BMP280;10526;50.850;12.928;2023-03-26T20:49:44;96404.94;;;6.85
20730;BMP280;10526;50.850;12.928;2023-03-26T20:54:21;96405.41;;;6.80
20730;BMP280;10526;50.850;12.928;2023-03-26T20:58:45;96402.81;;;6.76
20730;BMP280;10526;50.850;12.928;2023-03-26T21:03:18;96412.56;;;6.79
20730;BMP280;10526;50.850;12.928;2023-03-26T21:07:41;96406.47;;;6.82
20730;BMP280;10526;50.850;12.928;2023-03-26T21:12:05;96404.84;;;6.88
20730;BMP280;10526;50.850;12.928;2023-03-26T21:16:29;96410.84;;;6.93
20730;BMP280;10526;50.850;12.928;2023-03-26T21:26:20;96416.41;;;6.98
20730;BMP280;10526;50.850;12.928;2023-03-26T21:30:49;96424.06;;;6.93
20730;BMP280;10526;50.850;12.928;2023-03-26T21:35:13;96428.25;;;6.90
20730;BMP280;10526;50.850;12.928;2023-03-26T21:39:37;96436.59;;;6.88
20730;BMP280;10526;50.850;12.928;2023-03-26T21:43:59;96437.44;;;6.85
20730;BMP280;10526;50.850;12.928;2023-03-26T21:48:21;96444.53;;;6.88
20730;BMP280;10526;50.850;12.928;2023-03-26T21:52:44;96436.59;;;6.88
20730;BMP280;10526;50.850;12.928;2023-03-26T22:06:45;96429.31;;;6.96
20730;BMP280;10526;50.850;12.928;2023-03-26T22:11:10;96436.09;;;6.97
20730;BMP280;10526;50.850;12.928;2023-03-26T22:15:33;96440.56;;;7.00
20730;BMP280;10526;50.850;12.928;2023-03-26T22:19:55;96446.59;;;7.01
20730;BMP280;10526;50.850;12.928;2023-03-26T22:24:17;96447.75;;;7.00
20730;BMP280;10526;50.850;12.928;2023-03-26T22:28:40;96451.56;;;6.75
20730;BMP280;10526;50.850;12.928;2023-03-26T22:33:02;96453.84;;;6.50
20730;BMP280;10526;50.850;12.928;2023-03-26T22:37:24;96453.59;;;6.41
20730;BMP280;10526;50.850;12.928;2023-03-26T22:41:46;96469.25;;;6.31
20730;BMP280;10526;50.850;12.928;2023-03-26T22:46:08;96469.84;;;6.16
20730;BMP280;10526;50.850;12.928;2023-03-26T22:50:32;96466.53;;;6.08
20730;BMP280;10526;50.850;12.928;2023-03-26T22:54:53;96465.16;;;6.00
20730;BMP280;10526;50.850;12.928;2023-03-26T22:59:15;96474.34;;;5.88
20730;BMP280;10526;50.850;12.928;2023-03-26T23:03:38;96475.16;;;5.81
20730;BMP280;10526;50.850;12.928;2023-03-26T23:07:59;96491.19;;;5.67
20730;BMP280;10526;50.850;12.928;2023-03-26T23:12:21;96485.13;;;5.70
20730;BMP280;10526;50.850;12.928;2023-03-26T23:16:43;96498.28;;;5.74
20730;BMP280;10526;50.850;12.928;2023-03-26T23:21:16;96502.38;;;5.78
20730;BMP280;10526;50.850;12.928;2023-03-26T23:25:39;96505.34;;;5.84
20730;BMP280;10526;50.850;12.928;2023-03-26T23:30:03;96507.09;;;5.94
20730;BMP280;10526;50.850;12.928;2023-03-26T23:34:25;96518.69;;;6.04
20730;BMP280;10526;50.850;12.928;2023-03-26T23:38:47;96524.63;;;6.12
20730;BMP280;10526;50.850;12.928;2023-03-26T23:43:10;96525.91;;;6.00
20730;BMP280;10526;50.850;12.928;2023-03-26T23:47:32;96533.31;;;5.78
20730;BMP280;10526;50.850;12.928;2023-03-26T23:51:55;96531.88;;;5.73
20730;BMP280;10526;50.850;12.928;2023-03-26T23:56:17;96538.25;;;5.76
